Whelen Springs, Arkansas
Current Conditions -  °F | °C
As of 3:56 PM on Wednesday 22 Oct 2014 (Local Time) from KADF Reporting Station
Clear Clear  
Wind Chill: 74°   Ceiling: Unl
Heat Index: 74°   Visibility: 10mi
Dew Point: 55°   Wind: 5mph
Humidity: 51%   Direction: 60°ENE
Pressure: 30.15"   Gusts: NA
Location:  33.83°N, 93.13°W
Report Text: KADF 222056Z AUTO 06004KT 10SM CLR 23/13 A3015 RMK AO2 56018 T02330127 SLP224
Loading
Personal Weather Stations






























Interactive Weather Map
Tropical Storm Tracking
New forecast layout! Learn more

10-Day Weather Forecast

Advertisements
Track Severe Weather on mobile